sensor_id;sensor_type;location;lat;lon;timestamp;P1;durP1;ratioP1;P2;durP2;ratioP2
21593;SDS011;10959;51.328;7.322;2024-01-16T00:01:29;21.50;;;15.63;;
21593;SDS011;10959;51.328;7.322;2024-01-16T00:03:55;16.50;;;14.07;;
21593;SDS011;10959;51.328;7.322;2024-01-16T00:06:22;17.30;;;13.53;;
21593;SDS011;10959;51.328;7.322;2024-01-16T00:08:48;21.57;;;16.33;;
21593;SDS011;10959;51.328;7.322;2024-01-16T00:11:14;22.33;;;15.73;;
21593;SDS011;10959;51.328;7.322;2024-01-16T00:13:41;20.53;;;15.60;;
21593;SDS011;10959;51.328;7.322;2024-01-16T00:16:07;21.10;;;15.47;;
21593;SDS011;10959;51.328;7.322;2024-01-16T00:18:35;22.00;;;16.47;;
21593;SDS011;10959;51.328;7.322;2024-01-16T00:21:02;22.03;;;16.47;;
21593;SDS011;10959;51.328;7.322;2024-01-16T00:23:28;22.43;;;17.00;;
21593;SDS011;10959;51.328;7.322;2024-01-16T00:25:56;20.03;;;17.13;;
21593;SDS011;10959;51.328;7.322;2024-01-16T00:28:23;23.33;;;17.43;;
21593;SDS011;10959;51.328;7.322;2024-01-16T00:30:49;18.07;;;15.57;;
21593;SDS011;10959;51.328;7.322;2024-01-16T00:33:16;24.17;;;17.80;;
21593;SDS011;10959;51.328;7.322;2024-01-16T00:35:43;21.63;;;15.47;;
21593;SDS011;10959;51.328;7.322;2024-01-16T00:38:10;20.03;;;15.83;;
21593;SDS011;10959;51.328;7.322;2024-01-16T00:40:36;19.47;;;14.90;;
21593;SDS011;10959;51.328;7.322;2024-01-16T00:43:03;19.93;;;14.10;;
21593;SDS011;10959;51.328;7.322;2024-01-16T00:45:30;19.00;;;13.77;;
21593;SDS011;10959;51.328;7.322;2024-01-16T00:47:56;18.03;;;14.50;;
21593;SDS011;10959;51.328;7.322;2024-01-16T00:50:23;20.63;;;16.57;;
21593;SDS011;10959;51.328;7.322;2024-01-16T00:52:51;27.60;;;18.17;;
21593;SDS011;10959;51.328;7.322;2024-01-16T00:55:18;25.27;;;17.30;;
21593;SDS011;10959;51.328;7.322;2024-01-16T00:57:44;19.77;;;16.90;;
21593;SDS011;10959;51.328;7.322;2024-01-16T01:00:11;24.67;;;17.13;;
21593;SDS011;10959;51.328;7.322;2024-01-16T01:02:38;21.17;;;17.27;;
21593;SDS011;10959;51.328;7.322;2024-01-16T01:05:05;21.57;;;18.43;;
21593;SDS011;10959;51.328;7.322;2024-01-16T01:07:33;21.37;;;16.47;;
21593;SDS011;10959;51.328;7.322;2024-01-16T01:10:01;22.33;;;17.57;;
21593;SDS011;10959;51.328;7.322;2024-01-16T01:12:28;24.67;;;18.90;;
21593;SDS011;10959;51.328;7.322;2024-01-16T01:14:55;20.50;;;15.73;;
21593;SDS011;10959;51.328;7.322;2024-01-16T01:17:21;18.93;;;16.63;;
21593;SDS011;10959;51.328;7.322;2024-01-16T01:19:47;21.83;;;17.07;;
21593;SDS011;10959;51.328;7.322;2024-01-16T01:22:14;16.13;;;14.43;;
21593;SDS011;10959;51.328;7.322;2024-01-16T01:24:40;24.33;;;16.77;;
21593;SDS011;10959;51.328;7.322;2024-01-16T01:27:09;23.60;;;16.87;;
21593;SDS011;10959;51.328;7.322;2024-01-16T01:29:35;21.10;;;14.93;;
21593;SDS011;10959;51.328;7.322;2024-01-16T01:32:02;19.13;;;14.43;;
21593;SDS011;10959;51.328;7.322;2024-01-16T01:34:29;16.17;;;14.47;;
21593;SDS011;10959;51.328;7.322;2024-01-16T01:36:55;15.40;;;13.63;;
21593;SDS011;10959;51.328;7.322;2024-01-16T01:39:23;18.83;;;14.20;;
21593;SDS011;10959;51.328;7.322;2024-01-16T01:41:49;16.53;;;13.33;;
21593;SDS011;10959;51.328;7.322;2024-01-16T01:44:17;17.77;;;14.50;;
21593;SDS011;10959;51.328;7.322;2024-01-16T01:46:44;19.37;;;14.57;;
21593;SDS011;10959;51.328;7.322;2024-01-16T01:49:11;19.23;;;14.37;;
21593;SDS011;10959;51.328;7.322;2024-01-16T01:51:39;21.37;;;14.97;;
21593;SDS011;10959;51.328;7.322;2024-01-16T01:54:06;18.57;;;13.53;;
21593;SDS011;10959;51.328;7.322;2024-01-16T01:56:33;20.03;;;14.10;;
21593;SDS011;10959;51.328;7.322;2024-01-16T01:59:00;20.90;;;13.57;;
21593;SDS011;10959;51.328;7.322;2024-01-16T02:01:29;18.57;;;13.77;;
21593;SDS011;10959;51.328;7.322;2024-01-16T02:03:57;20.87;;;13.43;;
21593;SDS011;10959;51.328;7.322;2024-01-16T02:06:25;15.30;;;12.70;;
21593;SDS011;10959;51.328;7.322;2024-01-16T02:08:51;21.77;;;13.97;;
21593;SDS011;10959;51.328;7.322;2024-01-16T02:11:18;19.17;;;13.90;;
21593;SDS011;10959;51.328;7.322;2024-01-16T02:13:44;14.90;;;11.87;;
21593;SDS011;10959;51.328;7.322;2024-01-16T02:16:18;17.20;;;13.73;;
21593;SDS011;10959;51.328;7.322;2024-01-16T02:18:46;19.70;;;14.87;;
21593;SDS011;10959;51.328;7.322;2024-01-16T02:21:15;18.43;;;13.63;;
21593;SDS011;10959;51.328;7.322;2024-01-16T02:23:45;16.43;;;13.10;;
21593;SDS011;10959;51.328;7.322;2024-01-16T02:26:12;17.27;;;12.60;;
21593;SDS011;10959;51.328;7.322;2024-01-16T02:28:40;15.47;;;13.30;;
21593;SDS011;10959;51.328;7.322;2024-01-16T02:31:07;19.27;;;12.90;;
21593;SDS011;10959;51.328;7.322;2024-01-16T02:33:33;16.03;;;12.10;;
21593;SDS011;10959;51.328;7.322;2024-01-16T02:35:59;15.97;;;12.37;;
21593;SDS011;10959;51.328;7.322;2024-01-16T02:38:26;15.57;;;12.23;;
21593;SDS011;10959;51.328;7.322;2024-01-16T02:40:54;13.10;;;11.60;;
21593;SDS011;10959;51.328;7.322;2024-01-16T02:43:20;11.33;;;10.13;;
21593;SDS011;10959;51.328;7.322;2024-01-16T02:45:48;14.53;;;11.13;;
21593;SDS011;10959;51.328;7.322;2024-01-16T02:48:14;14.07;;;11.73;;
21593;SDS011;10959;51.328;7.322;2024-01-16T02:50:40;14.53;;;11.57;;
21593;SDS011;10959;51.328;7.322;2024-01-16T02:53:07;18.03;;;12.93;;
21593;SDS011;10959;51.328;7.322;2024-01-16T02:55:33;18.47;;;13.40;;
21593;SDS011;10959;51.328;7.322;2024-01-16T02:58:01;15.50;;;11.50;;
21593;SDS011;10959;51.328;7.322;2024-01-16T03:00:28;20.57;;;14.30;;
21593;SDS011;10959;51.328;7.322;2024-01-16T03:02:55;18.43;;;14.00;;
21593;SDS011;10959;51.328;7.322;2024-01-16T03:05:21;16.37;;;13.80;;
21593;SDS011;10959;51.328;7.322;2024-01-16T03:07:47;17.13;;;13.83;;
21593;SDS011;10959;51.328;7.322;2024-01-16T03:10:14;18.30;;;14.23;;
21593;SDS011;10959;51.328;7.322;2024-01-16T03:12:40;19.37;;;13.53;;
21593;SDS011;10959;51.328;7.322;2024-01-16T03:15:09;22.40;;;14.77;;
21593;SDS011;10959;51.328;7.322;2024-01-16T03:17:35;19.57;;;14.00;;
21593;SDS011;10959;51.328;7.322;2024-01-16T03:20:02;17.00;;;14.20;;
21593;SDS011;10959;51.328;7.322;2024-01-16T03:22:29;15.67;;;12.70;;
21593;SDS011;10959;51.328;7.322;2024-01-16T03:24:55;15.10;;;12.97;;
21593;SDS011;10959;51.328;7.322;2024-01-16T03:27:22;16.43;;;12.93;;
21593;SDS011;10959;51.328;7.322;2024-01-16T03:29:49;15.13;;;13.13;;
21593;SDS011;10959;51.328;7.322;2024-01-16T03:32:17;16.57;;;12.33;;
21593;SDS011;10959;51.328;7.322;2024-01-16T03:34:43;13.87;;;12.47;;
21593;SDS011;10959;51.328;7.322;2024-01-16T03:37:09;19.30;;;12.63;;
21593;SDS011;10959;51.328;7.322;2024-01-16T03:39:35;17.17;;;12.27;;
21593;SDS011;10959;51.328;7.322;2024-01-16T03:42:01;15.53;;;12.63;;
21593;SDS011;10959;51.328;7.322;2024-01-16T03:44:28;21.53;;;12.73;;
21593;SDS011;10959;51.328;7.322;2024-01-16T03:46:54;14.23;;;12.63;;
21593;SDS011;10959;51.328;7.322;2024-01-16T03:49:22;16.50;;;13.80;;
21593;SDS011;10959;51.328;7.322;2024-01-16T03:51:49;15.47;;;13.20;;
21593;SDS011;10959;51.328;7.322;2024-01-16T03:54:15;18.10;;;14.20;;
21593;SDS011;10959;51.328;7.322;2024-01-16T03:56:42;16.17;;;14.23;;
21593;SDS011;10959;51.328;7.322;2024-01-16T03:59:08;15.07;;;13.47;;
21593;SDS011;10959;51.328;7.322;2024-01-16T04:01:34;17.73;;;14.20;;
21593;SDS011;10959;51.328;7.322;2024-01-16T04:04:02;15.73;;;13.97;;
21593;SDS011;10959;51.328;7.322;2024-01-16T04:06:32;14.37;;;12.57;;
21593;SDS011;10959;51.328;7.322;2024-01-16T04:08:59;18.03;;;14.17;;
21593;SDS011;10959;51.328;7.322;2024-01-16T04:11:25;16.30;;;14.60;;
21593;SDS011;10959;51.328;7.322;2024-01-16T04:13:52;20.17;;;13.50;;
21593;SDS011;10959;51.328;7.322;2024-01-16T04:16:18;15.53;;;12.67;;
21593;SDS011;10959;51.328;7.322;2024-01-16T04:18:45;17.57;;;14.33;;
21593;SDS011;10959;51.328;7.322;2024-01-16T04:21:11;16.67;;;13.40;;
21593;SDS011;10959;51.328;7.322;2024-01-16T04:23:40;16.67;;;13.47;;
21593;SDS011;10959;51.328;7.322;2024-01-16T04:26:07;15.10;;;12.97;;
21593;SDS011;10959;51.328;7.322;2024-01-16T04:28:34;18.03;;;14.73;;
21593;SDS011;10959;51.328;7.322;2024-01-16T04:31:02;15.77;;;13.13;;
21593;SDS011;10959;51.328;7.322;2024-01-16T04:33:28;18.10;;;14.80;;
21593;SDS011;10959;51.328;7.322;2024-01-16T04:35:55;20.30;;;15.40;;
21593;SDS011;10959;51.328;7.322;2024-01-16T04:38:22;18.63;;;15.67;;
21593;SDS011;10959;51.328;7.322;2024-01-16T04:40:50;19.53;;;15.67;;
21593;SDS011;10959;51.328;7.322;2024-01-16T04:43:16;20.00;;;14.37;;
21593;SDS011;10959;51.328;7.322;2024-01-16T04:45:42;19.00;;;15.27;;
21593;SDS011;10959;51.328;7.322;2024-01-16T04:48:09;18.03;;;13.97;;
21593;SDS011;10959;51.328;7.322;2024-01-16T04:50:36;18.93;;;14.40;;
21593;SDS011;10959;51.328;7.322;2024-01-16T04:53:02;20.23;;;14.87;;
21593;SDS011;10959;51.328;7.322;2024-01-16T04:55:29;17.43;;;15.33;;
21593;SDS011;10959;51.328;7.322;2024-01-16T04:57:57;19.50;;;14.53;;
21593;SDS011;10959;51.328;7.322;2024-01-16T05:00:25;16.60;;;14.47;;
21593;SDS011;10959;51.328;7.322;2024-01-16T05:02:52;18.83;;;15.33;;
21593;SDS011;10959;51.328;7.322;2024-01-16T05:05:19;17.23;;;13.83;;
21593;SDS011;10959;51.328;7.322;2024-01-16T05:07:45;17.73;;;13.90;;
21593;SDS011;10959;51.328;7.322;2024-01-16T05:10:12;17.33;;;14.30;;
21593;SDS011;10959;51.328;7.322;2024-01-16T05:12:38;19.07;;;13.57;;
21593;SDS011;10959;51.328;7.322;2024-01-16T05:15:07;14.67;;;13.17;;
21593;SDS011;10959;51.328;7.322;2024-01-16T05:17:33;14.40;;;12.90;;
21593;SDS011;10959;51.328;7.322;2024-01-16T05:20:01;16.97;;;13.70;;
21593;SDS011;10959;51.328;7.322;2024-01-16T05:22:28;16.40;;;13.90;;
21593;SDS011;10959;51.328;7.322;2024-01-16T05:24:55;16.30;;;14.00;;
21593;SDS011;10959;51.328;7.322;2024-01-16T05:27:21;16.40;;;13.57;;
21593;SDS011;10959;51.328;7.322;2024-01-16T05:29:48;16.53;;;13.87;;
21593;SDS011;10959;51.328;7.322;2024-01-16T05:32:15;17.87;;;13.23;;
21593;SDS011;10959;51.328;7.322;2024-01-16T05:34:42;14.10;;;12.60;;
21593;SDS011;10959;51.328;7.322;2024-01-16T05:37:08;15.57;;;13.87;;
21593;SDS011;10959;51.328;7.322;2024-01-16T05:39:35;16.07;;;13.27;;
21593;SDS011;10959;51.328;7.322;2024-01-16T05:42:02;14.07;;;12.60;;
21593;SDS011;10959;51.328;7.322;2024-01-16T05:44:29;14.23;;;11.50;;
21593;SDS011;10959;51.328;7.322;2024-01-16T05:46:55;13.37;;;11.27;;
21593;SDS011;10959;51.328;7.322;2024-01-16T05:49:23;14.20;;;12.10;;
21593;SDS011;10959;51.328;7.322;2024-01-16T05:51:49;14.13;;;11.00;;
21593;SDS011;10959;51.328;7.322;2024-01-16T05:54:16;16.50;;;12.37;;
21593;SDS011;10959;51.328;7.322;2024-01-16T05:56:42;13.20;;;11.40;;
21593;SDS011;10959;51.328;7.322;2024-01-16T05:59:09;15.97;;;11.97;;
21593;SDS011;10959;51.328;7.322;2024-01-16T06:01:35;15.67;;;12.40;;
21593;SDS011;10959;51.328;7.322;2024-01-16T06:04:02;14.10;;;11.73;;
21593;SDS011;10959;51.328;7.322;2024-01-16T06:06:31;14.97;;;11.80;;
21593;SDS011;10959;51.328;7.322;2024-01-16T06:08:58;15.00;;;11.93;;
21593;SDS011;10959;51.328;7.322;2024-01-16T06:11:30;13.00;;;11.07;;
21593;SDS011;10959;51.328;7.322;2024-01-16T06:13:56;14.43;;;10.93;;
21593;SDS011;10959;51.328;7.322;2024-01-16T06:16:23;14.13;;;11.90;;
21593;SDS011;10959;51.328;7.322;2024-01-16T06:18:50;11.80;;;10.60;;
21593;SDS011;10959;51.328;7.322;2024-01-16T06:21:16;18.17;;;10.27;;
21593;SDS011;10959;51.328;7.322;2024-01-16T06:23:44;14.03;;;10.97;;
21593;SDS011;10959;51.328;7.322;2024-01-16T06:26:10;14.13;;;11.03;;
21593;SDS011;10959;51.328;7.322;2024-01-16T06:28:37;13.30;;;11.10;;
21593;SDS011;10959;51.328;7.322;2024-01-16T06:31:03;14.23;;;10.47;;
21593;SDS011;10959;51.328;7.322;2024-01-16T06:33:30;11.83;;;10.27;;
21593;SDS011;10959;51.328;7.322;2024-01-16T06:35:56;15.07;;;10.53;;
21593;SDS011;10959;51.328;7.322;2024-01-16T06:38:23;13.47;;;10.93;;
21593;SDS011;10959;51.328;7.322;2024-01-16T06:40:50;16.50;;;11.17;;
21593;SDS011;10959;51.328;7.322;2024-01-16T06:43:17;12.73;;;11.10;;
21593;SDS011;10959;51.328;7.322;2024-01-16T06:45:44;11.77;;;10.53;;
21593;SDS011;10959;51.328;7.322;2024-01-16T06:48:10;12.27;;;10.27;;
21593;SDS011;10959;51.328;7.322;2024-01-16T06:50:37;14.80;;;13.30;;
21593;SDS011;10959;51.328;7.322;2024-01-16T06:53:03;14.83;;;12.37;;
21593;SDS011;10959;51.328;7.322;2024-01-16T06:55:30;15.27;;;12.67;;
21593;SDS011;10959;51.328;7.322;2024-01-16T06:57:58;17.13;;;15.10;;
21593;SDS011;10959;51.328;7.322;2024-01-16T07:00:24;19.23;;;16.03;;
21593;SDS011;10959;51.328;7.322;2024-01-16T07:02:51;26.87;;;15.80;;
21593;SDS011;10959;51.328;7.322;2024-01-16T07:05:19;20.10;;;15.53;;
21593;SDS011;10959;51.328;7.322;2024-01-16T07:07:45;26.33;;;17.17;;
21593;SDS011;10959;51.328;7.322;2024-01-16T07:10:12;18.10;;;15.30;;
21593;SDS011;10959;51.328;7.322;2024-01-16T07:12:43;18.30;;;14.07;;
21593;SDS011;10959;51.328;7.322;2024-01-16T07:15:11;16.13;;;13.60;;
21593;SDS011;10959;51.328;7.322;2024-01-16T07:17:38;15.03;;;12.37;;
21593;SDS011;10959;51.328;7.322;2024-01-16T07:20:05;17.70;;;13.00;;
21593;SDS011;10959;51.328;7.322;2024-01-16T07:22:32;17.07;;;14.57;;
21593;SDS011;10959;51.328;7.322;2024-01-16T07:24:59;17.37;;;13.73;;
21593;SDS011;10959;51.328;7.322;2024-01-16T07:27:25;15.60;;;11.80;;
21593;SDS011;10959;51.328;7.322;2024-01-16T07:29:52;18.10;;;13.40;;
21593;SDS011;10959;51.328;7.322;2024-01-16T07:32:19;20.57;;;11.80;;
21593;SDS011;10959;51.328;7.322;2024-01-16T07:34:46;14.50;;;11.70;;
21593;SDS011;10959;51.328;7.322;2024-01-16T07:37:12;15.47;;;10.57;;
21593;SDS011;10959;51.328;7.322;2024-01-16T07:39:40;16.57;;;11.17;;
21593;SDS011;10959;51.328;7.322;2024-01-16T07:42:07;18.40;;;10.47;;
21593;SDS011;10959;51.328;7.322;2024-01-16T07:44:34;15.50;;;10.90;;
21593;SDS011;10959;51.328;7.322;2024-01-16T07:47:00;14.83;;;9.73;;
21593;SDS011;10959;51.328;7.322;2024-01-16T07:49:28;16.20;;;10.50;;
21593;SDS011;10959;51.328;7.322;2024-01-16T07:51:54;13.30;;;10.80;;
21593;SDS011;10959;51.328;7.322;2024-01-16T07:54:21;12.67;;;9.43;;
21593;SDS011;10959;51.328;7.322;2024-01-16T07:56:47;13.07;;;8.93;;
21593;SDS011;10959;51.328;7.322;2024-01-16T07:59:13;16.07;;;8.93;;
21593;SDS011;10959;51.328;7.322;2024-01-16T08:01:40;11.27;;;8.37;;
21593;SDS011;10959;51.328;7.322;2024-01-16T08:04:06;12.13;;;7.33;;
21593;SDS011;10959;51.328;7.322;2024-01-16T08:06:34;12.80;;;8.00;;
21593;SDS011;10959;51.328;7.322;2024-01-16T08:09:00;13.20;;;7.17;;
21593;SDS011;10959;51.328;7.322;2024-01-16T08:11:26;12.17;;;6.87;;
21593;SDS011;10959;51.328;7.322;2024-01-16T08:13:52;9.90;;;6.43;;
21593;SDS011;10959;51.328;7.322;2024-01-16T08:16:19;9.43;;;5.90;;
21593;SDS011;10959;51.328;7.322;2024-01-16T08:18:45;12.00;;;5.93;;
21593;SDS011;10959;51.328;7.322;2024-01-16T08:21:12;10.80;;;5.67;;
21593;SDS011;10959;51.328;7.322;2024-01-16T08:23:40;8.13;;;4.90;;
21593;SDS011;10959;51.328;7.322;2024-01-16T08:26:07;9.43;;;5.70;;
21593;SDS011;10959;51.328;7.322;2024-01-16T08:28:33;10.80;;;5.40;;
21593;SDS011;10959;51.328;7.322;2024-01-16T08:31:00;8.10;;;5.20;;
21593;SDS011;10959;51.328;7.322;2024-01-16T08:33:27;11.87;;;5.40;;
21593;SDS011;10959;51.328;7.322;2024-01-16T08:35:53;10.07;;;5.00;;
21593;SDS011;10959;51.328;7.322;2024-01-16T08:38:19;12.30;;;4.77;;
21593;SDS011;10959;51.328;7.322;2024-01-16T08:40:47;10.60;;;4.30;;
21593;SDS011;10959;51.328;7.322;2024-01-16T08:43:14;11.33;;;4.27;;
21593;SDS011;10959;51.328;7.322;2024-01-16T08:45:40;11.23;;;4.60;;
21593;SDS011;10959;51.328;7.322;2024-01-16T08:48:06;10.20;;;4.33;;
21593;SDS011;10959;51.328;7.322;2024-01-16T08:50:33;9.43;;;4.53;;
21593;SDS011;10959;51.328;7.322;2024-01-16T08:52:59;7.93;;;4.43;;
21593;SDS011;10959;51.328;7.322;2024-01-16T08:55:26;6.60;;;3.43;;
21593;SDS011;10959;51.328;7.322;2024-01-16T08:57:53;12.30;;;4.23;;
21593;SDS011;10959;51.328;7.322;2024-01-16T09:00:20;5.03;;;3.33;;
21593;SDS011;10959;51.328;7.322;2024-01-16T09:02:46;7.07;;;3.73;;
21593;SDS011;10959;51.328;7.322;2024-01-16T09:05:13;7.30;;;3.53;;
21593;SDS011;10959;51.328;7.322;2024-01-16T09:07:40;7.00;;;3.60;;
21593;SDS011;10959;51.328;7.322;2024-01-16T09:10:07;9.00;;;3.07;;
21593;SDS011;10959;51.328;7.322;2024-01-16T09:12:34;8.07;;;3.00;;
21593;SDS011;10959;51.328;7.322;2024-01-16T09:15:02;10.87;;;3.60;;
21593;SDS011;10959;51.328;7.322;2024-01-16T09:17:28;6.40;;;3.47;;
21593;SDS011;10959;51.328;7.322;2024-01-16T09:19:55;6.03;;;3.40;;
21593;SDS011;10959;51.328;7.322;2024-01-16T09:22:21;7.03;;;3.40;;
21593;SDS011;10959;51.328;7.322;2024-01-16T09:24:48;8.57;;;3.50;;
21593;SDS011;10959;51.328;7.322;2024-01-16T09:27:14;8.13;;;3.33;;
21593;SDS011;10959;51.328;7.322;2024-01-16T09:29:41;8.90;;;3.33;;
21593;SDS011;10959;51.328;7.322;2024-01-16T09:32:09;7.47;;;3.73;;
21593;SDS011;10959;51.328;7.322;2024-01-16T09:34:35;9.87;;;4.50;;
21593;SDS011;10959;51.328;7.322;2024-01-16T09:37:02;8.37;;;3.53;;
21593;SDS011;10959;51.328;7.322;2024-01-16T09:39:28;9.57;;;3.77;;
21593;SDS011;10959;51.328;7.322;2024-01-16T09:41:56;6.27;;;3.70;;
21593;SDS011;10959;51.328;7.322;2024-01-16T09:44:26;7.93;;;4.07;;
21593;SDS011;10959;51.328;7.322;2024-01-16T09:46:53;11.27;;;3.73;;
21593;SDS011;10959;51.328;7.322;2024-01-16T09:49:23;7.80;;;4.03;;
21593;SDS011;10959;51.328;7.322;2024-01-16T09:51:50;5.50;;;3.60;;
21593;SDS011;10959;51.328;7.322;2024-01-16T09:54:16;5.93;;;3.20;;
21593;SDS011;10959;51.328;7.322;2024-01-16T09:56:43;6.37;;;3.10;;
21593;SDS011;10959;51.328;7.322;2024-01-16T09:59:12;9.80;;;4.47;;
21593;SDS011;10959;51.328;7.322;2024-01-16T10:01:43;7.73;;;3.80;;
21593;SDS011;10959;51.328;7.322;2024-01-16T10:04:10;6.60;;;3.20;;
21593;SDS011;10959;51.328;7.322;2024-01-16T10:06:39;9.93;;;3.50;;
21593;SDS011;10959;51.328;7.322;2024-01-16T10:09:07;5.37;;;2.93;;
21593;SDS011;10959;51.328;7.322;2024-01-16T10:11:37;7.57;;;3.60;;
21593;SDS011;10959;51.328;7.322;2024-01-16T10:14:04;6.20;;;3.60;;
21593;SDS011;10959;51.328;7.322;2024-01-16T10:19:21;8.13;;;3.43;;
21593;SDS011;10959;51.328;7.322;2024-01-16T10:21:50;6.80;;;3.10;;
21593;SDS011;10959;51.328;7.322;2024-01-16T10:24:17;7.97;;;3.50;;
21593;SDS011;10959;51.328;7.322;2024-01-16T10:26:43;6.63;;;4.07;;
21593;SDS011;10959;51.328;7.322;2024-01-16T10:29:10;9.07;;;4.20;;
21593;SDS011;10959;51.328;7.322;2024-01-16T10:31:36;9.57;;;3.97;;
21593;SDS011;10959;51.328;7.322;2024-01-16T10:34:06;9.57;;;3.40;;
21593;SDS011;10959;51.328;7.322;2024-01-16T10:36:45;7.30;;;3.30;;
21593;SDS011;10959;51.328;7.322;2024-01-16T10:39:13;4.90;;;3.47;;
21593;SDS011;10959;51.328;7.322;2024-01-16T10:41:40;6.50;;;3.90;;
21593;SDS011;10959;51.328;7.322;2024-01-16T10:44:07;5.70;;;3.53;;
21593;SDS011;10959;51.328;7.322;2024-01-16T10:46:34;9.43;;;3.47;;
21593;SDS011;10959;51.328;7.322;2024-01-16T10:49:01;5.43;;;3.03;;
21593;SDS011;10959;51.328;7.322;2024-01-16T10:51:29;9.23;;;3.93;;
21593;SDS011;10959;51.328;7.322;2024-01-16T10:53:57;8.00;;;4.90;;
21593;SDS011;10959;51.328;7.322;2024-01-16T10:56:26;6.70;;;3.27;;
21593;SDS011;10959;51.328;7.322;2024-01-16T10:58:55;6.93;;;3.10;;
21593;SDS011;10959;51.328;7.322;2024-01-16T11:01:34;5.73;;;3.23;;
21593;SDS011;10959;51.328;7.322;2024-01-16T11:04:01;6.27;;;3.13;;
21593;SDS011;10959;51.328;7.322;2024-01-16T11:06:29;8.47;;;3.63;;
21593;SDS011;10959;51.328;7.322;2024-01-16T11:08:57;6.03;;;3.27;;
21593;SDS011;10959;51.328;7.322;2024-01-16T11:11:26;9.60;;;3.93;;
21593;SDS011;10959;51.328;7.322;2024-01-16T11:13:54;6.80;;;3.40;;
21593;SDS011;10959;51.328;7.322;2024-01-16T11:16:21;10.63;;;4.10;;
21593;SDS011;10959;51.328;7.322;2024-01-16T11:18:49;9.03;;;3.33;;
21593;SDS011;10959;51.328;7.322;2024-01-16T11:21:15;6.77;;;3.47;;
21593;SDS011;10959;51.328;7.322;2024-01-16T11:23:44;6.87;;;3.90;;
21593;SDS011;10959;51.328;7.322;2024-01-16T11:26:28;6.60;;;3.63;;
21593;SDS011;10959;51.328;7.322;2024-01-16T11:28:57;8.20;;;3.70;;
21593;SDS011;10959;51.328;7.322;2024-01-16T11:31:27;6.37;;;3.60;;
21593;SDS011;10959;51.328;7.322;2024-01-16T11:33:54;4.97;;;3.20;;
21593;SDS011;10959;51.328;7.322;2024-01-16T11:39:17;9.27;;;3.80;;
21593;SDS011;10959;51.328;7.322;2024-01-16T11:41:49;6.03;;;3.33;;
21593;SDS011;10959;51.328;7.322;2024-01-16T11:44:36;8.07;;;4.07;;
21593;SDS011;10959;51.328;7.322;2024-01-16T11:47:03;9.80;;;3.40;;
21593;SDS011;10959;51.328;7.322;2024-01-16T11:49:31;9.13;;;3.70;;
21593;SDS011;10959;51.328;7.322;2024-01-16T11:51:57;6.77;;;2.97;;
21593;SDS011;10959;51.328;7.322;2024-01-16T11:54:24;4.70;;;3.43;;
21593;SDS011;10959;51.328;7.322;2024-01-16T12:00:01;6.60;;;3.60;;
21593;SDS011;10959;51.328;7.322;2024-01-16T12:02:38;10.00;;;3.80;;
21593;SDS011;10959;51.328;7.322;2024-01-16T12:05:15;8.47;;;3.70;;
21593;SDS011;10959;51.328;7.322;2024-01-16T12:07:42;5.10;;;3.30;;
21593;SDS011;10959;51.328;7.322;2024-01-16T12:10:14;10.13;;;3.73;;
21593;SDS011;10959;51.328;7.322;2024-01-16T12:12:42;6.37;;;3.50;;
21593;SDS011;10959;51.328;7.322;2024-01-16T12:15:12;8.07;;;3.50;;
21593;SDS011;10959;51.328;7.322;2024-01-16T12:17:50;7.67;;;3.50;;
21593;SDS011;10959;51.328;7.322;2024-01-16T12:20:18;5.37;;;3.53;;
21593;SDS011;10959;51.328;7.322;2024-01-16T12:22:51;8.87;;;4.43;;
21593;SDS011;10959;51.328;7.322;2024-01-16T12:25:19;9.07;;;4.83;;
21593;SDS011;10959;51.328;7.322;2024-01-16T12:27:48;10.97;;;5.33;;
21593;SDS011;10959;51.328;7.322;2024-01-16T12:30:20;8.87;;;5.20;;
21593;SDS011;10959;51.328;7.322;2024-01-16T12:32:47;7.03;;;4.90;;
21593;SDS011;10959;51.328;7.322;2024-01-16T12:35:19;7.53;;;4.40;;
21593;SDS011;10959;51.328;7.322;2024-01-16T12:37:56;10.00;;;4.43;;
21593;SDS011;10959;51.328;7.322;2024-01-16T12:40:24;10.50;;;4.90;;
21593;SDS011;10959;51.328;7.322;2024-01-16T12:42:52;7.40;;;4.20;;
21593;SDS011;10959;51.328;7.322;2024-01-16T12:45:19;6.57;;;3.93;;
21593;SDS011;10959;51.328;7.322;2024-01-16T12:47:49;7.27;;;4.13;;
21593;SDS011;10959;51.328;7.322;2024-01-16T12:50:18;7.23;;;4.17;;
21593;SDS011;10959;51.328;7.322;2024-01-16T12:52:45;9.83;;;4.50;;
21593;SDS011;10959;51.328;7.322;2024-01-16T12:55:13;10.50;;;4.20;;
21593;SDS011;10959;51.328;7.322;2024-01-16T12:57:40;8.03;;;4.40;;
21593;SDS011;10959;51.328;7.322;2024-01-16T13:00:21;7.13;;;4.40;;
21593;SDS011;10959;51.328;7.322;2024-01-16T13:02:49;4.73;;;3.60;;
21593;SDS011;10959;51.328;7.322;2024-01-16T13:05:16;6.93;;;4.33;;
21593;SDS011;10959;51.328;7.322;2024-01-16T13:07:42;7.87;;;4.20;;
21593;SDS011;10959;51.328;7.322;2024-01-16T13:10:09;5.83;;;4.13;;
21593;SDS011;10959;51.328;7.322;2024-01-16T13:12:41;8.47;;;4.27;;
21593;SDS011;10959;51.328;7.322;2024-01-16T13:15:07;10.77;;;4.23;;
21593;SDS011;10959;51.328;7.322;2024-01-16T13:17:37;6.90;;;4.33;;
21593;SDS011;10959;51.328;7.322;2024-01-16T13:20:04;8.60;;;4.30;;
21593;SDS011;10959;51.328;7.322;2024-01-16T13:22:35;5.73;;;4.37;;
21593;SDS011;10959;51.328;7.322;2024-01-16T13:25:01;7.20;;;3.97;;
21593;SDS011;10959;51.328;7.322;2024-01-16T13:27:30;8.63;;;5.00;;
21593;SDS011;10959;51.328;7.322;2024-01-16T13:29:57;8.90;;;4.90;;
21593;SDS011;10959;51.328;7.322;2024-01-16T13:32:24;13.70;;;5.03;;
21593;SDS011;10959;51.328;7.322;2024-01-16T13:34:52;9.87;;;5.33;;
21593;SDS011;10959;51.328;7.322;2024-01-16T13:37:19;12.37;;;4.67;;
21593;SDS011;10959;51.328;7.322;2024-01-16T13:39:47;7.60;;;4.10;;
21593;SDS011;10959;51.328;7.322;2024-01-16T13:42:13;7.63;;;4.60;;
21593;SDS011;10959;51.328;7.322;2024-01-16T13:44:43;7.17;;;4.60;;
21593;SDS011;10959;51.328;7.322;2024-01-16T13:47:10;7.83;;;4.10;;
21593;SDS011;10959;51.328;7.322;2024-01-16T13:49:36;8.30;;;4.20;;
21593;SDS011;10959;51.328;7.322;2024-01-16T13:52:04;7.00;;;4.33;;
21593;SDS011;10959;51.328;7.322;2024-01-16T13:54:31;11.00;;;4.67;;
21593;SDS011;10959;51.328;7.322;2024-01-16T13:56:57;9.13;;;4.33;;
21593;SDS011;10959;51.328;7.322;2024-01-16T13:59:24;8.40;;;4.17;;
21593;SDS011;10959;51.328;7.322;2024-01-16T14:01:50;5.50;;;4.13;;
21593;SDS011;10959;51.328;7.322;2024-01-16T14:04:16;8.13;;;4.10;;
21593;SDS011;10959;51.328;7.322;2024-01-16T14:06:43;5.77;;;4.43;;
21593;SDS011;10959;51.328;7.322;2024-01-16T14:09:11;7.93;;;4.40;;
21593;SDS011;10959;51.328;7.322;2024-01-16T14:11:38;8.53;;;4.67;;
21593;SDS011;10959;51.328;7.322;2024-01-16T14:14:05;7.60;;;4.53;;
21593;SDS011;10959;51.328;7.322;2024-01-16T14:16:31;8.50;;;4.20;;
21593;SDS011;10959;51.328;7.322;2024-01-16T14:18:58;11.30;;;5.33;;
21593;SDS011;10959;51.328;7.322;2024-01-16T14:21:25;9.03;;;4.87;;
21593;SDS011;10959;51.328;7.322;2024-01-16T14:23:51;8.67;;;5.10;;
21593;SDS011;10959;51.328;7.322;2024-01-16T14:26:19;6.60;;;4.97;;
21593;SDS011;10959;51.328;7.322;2024-01-16T14:28:45;7.47;;;4.80;;
21593;SDS011;10959;51.328;7.322;2024-01-16T14:31:12;6.97;;;5.50;;
21593;SDS011;10959;51.328;7.322;2024-01-16T14:33:38;9.27;;;5.10;;
21593;SDS011;10959;51.328;7.322;2024-01-16T14:36:05;8.47;;;4.57;;
21593;SDS011;10959;51.328;7.322;2024-01-16T14:38:31;7.27;;;5.03;;
21593;SDS011;10959;51.328;7.322;2024-01-16T14:40:58;10.73;;;5.30;;
21593;SDS011;10959;51.328;7.322;2024-01-16T14:43:25;7.67;;;4.87;;